sensor_id;sensor_type;location;lat;lon;timestamp;P1;durP1;ratioP1;P2;durP2;ratioP2
34711;SDS011;20941;42.408;25.634;2023-04-25T00:00:53;57.95;;;41.38;;
34711;SDS011;20941;42.408;25.634;2023-04-25T00:03:19;55.08;;;40.63;;
34711;SDS011;20941;42.408;25.634;2023-04-25T00:05:45;38.60;;;28.92;;
34711;SDS011;20941;42.408;25.634;2023-04-25T00:08:11;25.63;;;18.88;;
34711;SDS011;20941;42.408;25.634;2023-04-25T00:10:36;32.35;;;22.15;;
34711;SDS011;20941;42.408;25.634;2023-04-25T00:13:01;34.05;;;23.33;;
34711;SDS011;20941;42.408;25.634;2023-04-25T00:15:27;36.72;;;26.73;;
34711;SDS011;20941;42.408;25.634;2023-04-25T00:17:55;42.95;;;25.50;;
34711;SDS011;20941;42.408;25.634;2023-04-25T00:20:20;60.05;;;42.47;;
34711;SDS011;20941;42.408;25.634;2023-04-25T00:22:46;48.40;;;35.35;;
34711;SDS011;20941;42.408;25.634;2023-04-25T00:25:12;57.08;;;38.55;;
34711;SDS011;20941;42.408;25.634;2023-04-25T00:27:38;43.42;;;29.60;;
34711;SDS011;20941;42.408;25.634;2023-04-25T00:30:04;55.42;;;35.78;;
34711;SDS011;20941;42.408;25.634;2023-04-25T00:32:29;55.08;;;36.13;;
34711;SDS011;20941;42.408;25.634;2023-04-25T00:34:55;61.35;;;40.30;;
34711;SDS011;20941;42.408;25.634;2023-04-25T00:37:22;29.08;;;19.45;;
34711;SDS011;20941;42.408;25.634;2023-04-25T00:39:47;19.17;;;12.63;;
34711;SDS011;20941;42.408;25.634;2023-04-25T00:42:13;15.93;;;10.95;;
34711;SDS011;20941;42.408;25.634;2023-04-25T00:44:38;17.85;;;10.52;;
34711;SDS011;20941;42.408;25.634;2023-04-25T00:47:04;15.73;;;10.90;;
34711;SDS011;20941;42.408;25.634;2023-04-25T00:49:30;16.65;;;11.70;;
34711;SDS011;20941;42.408;25.634;2023-04-25T00:51:55;20.27;;;11.73;;
34711;SDS011;20941;42.408;25.634;2023-04-25T00:54:21;20.85;;;13.88;;
34711;SDS011;20941;42.408;25.634;2023-04-25T00:56:46;23.27;;;14.55;;
34711;SDS011;20941;42.408;25.634;2023-04-25T00:59:11;18.90;;;13.95;;
34711;SDS011;20941;42.408;25.634;2023-04-25T01:01:38;21.40;;;15.32;;
34711;SDS011;20941;42.408;25.634;2023-04-25T01:04:04;19.00;;;12.65;;
34711;SDS011;20941;42.408;25.634;2023-04-25T01:06:29;17.88;;;11.38;;
34711;SDS011;20941;42.408;25.634;2023-04-25T01:08:56;20.55;;;11.32;;
34711;SDS011;20941;42.408;25.634;2023-04-25T01:11:21;21.27;;;11.82;;
34711;SDS011;20941;42.408;25.634;2023-04-25T01:13:46;16.30;;;11.85;;
34711;SDS011;20941;42.408;25.634;2023-04-25T01:16:12;23.98;;;12.70;;
34711;SDS011;20941;42.408;25.634;2023-04-25T01:18:40;20.67;;;12.30;;
34711;SDS011;20941;42.408;25.634;2023-04-25T01:21:07;19.15;;;12.15;;
34711;SDS011;20941;42.408;25.634;2023-04-25T01:23:33;16.98;;;12.68;;
34711;SDS011;20941;42.408;25.634;2023-04-25T01:25:59;20.08;;;12.40;;
34711;SDS011;20941;42.408;25.634;2023-04-25T01:28:25;17.95;;;12.40;;
34711;SDS011;20941;42.408;25.634;2023-04-25T01:30:51;19.13;;;11.75;;
34711;SDS011;20941;42.408;25.634;2023-04-25T01:33:16;25.52;;;12.95;;
34711;SDS011;20941;42.408;25.634;2023-04-25T01:35:42;20.23;;;13.30;;
34711;SDS011;20941;42.408;25.634;2023-04-25T01:38:07;22.83;;;14.57;;
34711;SDS011;20941;42.408;25.634;2023-04-25T01:40:33;29.45;;;16.88;;
34711;SDS011;20941;42.408;25.634;2023-04-25T01:42:59;26.55;;;15.98;;
34711;SDS011;20941;42.408;25.634;2023-04-25T01:45:24;27.30;;;17.33;;
34711;SDS011;20941;42.408;25.634;2023-04-25T01:47:51;30.77;;;17.67;;
34711;SDS011;20941;42.408;25.634;2023-04-25T01:50:17;30.02;;;19.50;;
34711;SDS011;20941;42.408;25.634;2023-04-25T01:52:43;34.42;;;20.23;;
34711;SDS011;20941;42.408;25.634;2023-04-25T01:55:08;33.40;;;18.65;;
34711;SDS011;20941;42.408;25.634;2023-04-25T01:57:34;30.42;;;18.33;;
34711;SDS011;20941;42.408;25.634;2023-04-25T02:00:00;27.45;;;17.17;;
34711;SDS011;20941;42.408;25.634;2023-04-25T02:02:26;29.60;;;16.17;;
34711;SDS011;20941;42.408;25.634;2023-04-25T02:04:52;23.65;;;16.35;;
34711;SDS011;20941;42.408;25.634;2023-04-25T02:07:17;25.77;;;15.93;;
34711;SDS011;20941;42.408;25.634;2023-04-25T02:09:43;28.60;;;17.58;;
34711;SDS011;20941;42.408;25.634;2023-04-25T02:12:09;29.30;;;18.27;;
34711;SDS011;20941;42.408;25.634;2023-04-25T02:14:34;30.17;;;17.63;;
34711;SDS011;20941;42.408;25.634;2023-04-25T02:17:00;28.45;;;16.35;;
34711;SDS011;20941;42.408;25.634;2023-04-25T02:19:25;24.63;;;15.43;;
34711;SDS011;20941;42.408;25.634;2023-04-25T02:21:50;24.60;;;16.02;;
34711;SDS011;20941;42.408;25.634;2023-04-25T02:24:16;25.50;;;15.98;;
34711;SDS011;20941;42.408;25.634;2023-04-25T02:26:41;26.70;;;16.25;;
34711;SDS011;20941;42.408;25.634;2023-04-25T02:29:06;28.00;;;16.90;;
34711;SDS011;20941;42.408;25.634;2023-04-25T02:31:32;24.90;;;16.85;;
34711;SDS011;20941;42.408;25.634;2023-04-25T02:33:57;29.42;;;17.45;;
34711;SDS011;20941;42.408;25.634;2023-04-25T02:36:22;27.52;;;17.65;;
34711;SDS011;20941;42.408;25.634;2023-04-25T02:38:49;24.05;;;16.42;;
34711;SDS011;20941;42.408;25.634;2023-04-25T02:41:14;31.20;;;17.33;;
34711;SDS011;20941;42.408;25.634;2023-04-25T02:43:39;32.58;;;16.60;;
34711;SDS011;20941;42.408;25.634;2023-04-25T02:46:06;27.30;;;16.38;;
34711;SDS011;20941;42.408;25.634;2023-04-25T02:48:31;31.00;;;16.98;;
34711;SDS011;20941;42.408;25.634;2023-04-25T02:50:56;25.25;;;16.88;;
34711;SDS011;20941;42.408;25.634;2023-04-25T02:53:22;28.92;;;16.77;;
34711;SDS011;20941;42.408;25.634;2023-04-25T02:55:47;29.77;;;17.38;;
34711;SDS011;20941;42.408;25.634;2023-04-25T02:58:13;33.15;;;17.40;;
34711;SDS011;20941;42.408;25.634;2023-04-25T03:00:38;25.98;;;17.42;;
34711;SDS011;20941;42.408;25.634;2023-04-25T03:03:03;23.88;;;16.58;;
34711;SDS011;20941;42.408;25.634;2023-04-25T03:05:29;23.42;;;15.23;;
34711;SDS011;20941;42.408;25.634;2023-04-25T03:07:54;23.15;;;15.90;;
34711;SDS011;20941;42.408;25.634;2023-04-25T03:10:20;25.00;;;15.73;;
34711;SDS011;20941;42.408;25.634;2023-04-25T03:12:45;24.35;;;16.98;;
34711;SDS011;20941;42.408;25.634;2023-04-25T03:15:11;26.17;;;16.08;;
34711;SDS011;20941;42.408;25.634;2023-04-25T03:17:36;42.03;;;18.10;;
34711;SDS011;20941;42.408;25.634;2023-04-25T03:20:01;36.20;;;17.27;;
34711;SDS011;20941;42.408;25.634;2023-04-25T03:22:30;37.15;;;17.63;;
34711;SDS011;20941;42.408;25.634;2023-04-25T03:24:55;31.00;;;18.75;;
34711;SDS011;20941;42.408;25.634;2023-04-25T03:27:21;29.63;;;18.52;;
34711;SDS011;20941;42.408;25.634;2023-04-25T03:29:46;27.48;;;18.63;;
34711;SDS011;20941;42.408;25.634;2023-04-25T03:32:11;31.50;;;19.17;;
34711;SDS011;20941;42.408;25.634;2023-04-25T03:34:37;35.20;;;19.30;;
34711;SDS011;20941;42.408;25.634;2023-04-25T03:37:02;34.92;;;19.27;;
34711;SDS011;20941;42.408;25.634;2023-04-25T03:39:27;34.65;;;20.02;;
34711;SDS011;20941;42.408;25.634;2023-04-25T03:41:52;39.22;;;20.65;;
34711;SDS011;20941;42.408;25.634;2023-04-25T03:44:18;35.90;;;19.95;;
34711;SDS011;20941;42.408;25.634;2023-04-25T03:46:43;37.20;;;20.95;;
34711;SDS011;20941;42.408;25.634;2023-04-25T03:49:08;32.25;;;20.38;;
34711;SDS011;20941;42.408;25.634;2023-04-25T03:51:34;36.60;;;19.75;;
34711;SDS011;20941;42.408;25.634;2023-04-25T03:53:59;34.63;;;18.88;;
34711;SDS011;20941;42.408;25.634;2023-04-25T03:56:25;32.88;;;19.27;;
34711;SDS011;20941;42.408;25.634;2023-04-25T03:58:50;33.15;;;19.02;;
34711;SDS011;20941;42.408;25.634;2023-04-25T04:01:15;32.35;;;19.85;;
34711;SDS011;20941;42.408;25.634;2023-04-25T04:03:41;37.00;;;21.10;;
34711;SDS011;20941;42.408;25.634;2023-04-25T04:06:06;47.83;;;23.40;;
34711;SDS011;20941;42.408;25.634;2023-04-25T04:08:32;38.63;;;20.35;;
34711;SDS011;20941;42.408;25.634;2023-04-25T04:10:58;39.75;;;24.50;;
34711;SDS011;20941;42.408;25.634;2023-04-25T04:13:25;38.92;;;23.60;;
34711;SDS011;20941;42.408;25.634;2023-04-25T04:15:50;28.95;;;17.55;;
34711;SDS011;20941;42.408;25.634;2023-04-25T04:18:15;34.08;;;17.52;;
34711;SDS011;20941;42.408;25.634;2023-04-25T04:20:41;35.75;;;17.33;;
34711;SDS011;20941;42.408;25.634;2023-04-25T04:23:06;25.15;;;16.63;;
34711;SDS011;20941;42.408;25.634;2023-04-25T04:25:31;25.85;;;16.48;;
34711;SDS011;20941;42.408;25.634;2023-04-25T04:27:57;26.13;;;15.70;;
34711;SDS011;20941;42.408;25.634;2023-04-25T04:30:24;41.00;;;22.10;;
34711;SDS011;20941;42.408;25.634;2023-04-25T04:32:50;38.63;;;17.67;;
34711;SDS011;20941;42.408;25.634;2023-04-25T04:35:16;34.33;;;16.33;;
34711;SDS011;20941;42.408;25.634;2023-04-25T04:37:41;33.58;;;16.95;;
34711;SDS011;20941;42.408;25.634;2023-04-25T04:40:07;34.92;;;17.58;;
34711;SDS011;20941;42.408;25.634;2023-04-25T04:42:32;17.17;;;12.32;;
34711;SDS011;20941;42.408;25.634;2023-04-25T04:44:58;23.20;;;12.55;;
34711;SDS011;20941;42.408;25.634;2023-04-25T04:47:24;15.93;;;11.15;;
34711;SDS011;20941;42.408;25.634;2023-04-25T04:49:50;22.20;;;12.15;;
34711;SDS011;20941;42.408;25.634;2023-04-25T04:52:16;22.15;;;12.30;;
34711;SDS011;20941;42.408;25.634;2023-04-25T04:54:41;20.17;;;12.30;;
34711;SDS011;20941;42.408;25.634;2023-04-25T04:57:06;47.45;;;14.05;;
34711;SDS011;20941;42.408;25.634;2023-04-25T04:59:32;28.77;;;12.43;;
34711;SDS011;20941;42.408;25.634;2023-04-25T05:01:57;25.08;;;12.98;;
34711;SDS011;20941;42.408;25.634;2023-04-25T05:04:23;38.38;;;15.90;;
34711;SDS011;20941;42.408;25.634;2023-04-25T05:06:48;49.80;;;18.52;;
34711;SDS011;20941;42.408;25.634;2023-04-25T05:09:13;53.17;;;18.83;;
34711;SDS011;20941;42.408;25.634;2023-04-25T05:11:40;54.15;;;20.60;;
34711;SDS011;20941;42.408;25.634;2023-04-25T05:14:05;38.55;;;13.30;;
34711;SDS011;20941;42.408;25.634;2023-04-25T05:16:30;25.20;;;11.52;;
34711;SDS011;20941;42.408;25.634;2023-04-25T05:18:56;24.88;;;12.30;;
34711;SDS011;20941;42.408;25.634;2023-04-25T05:21:21;25.05;;;11.57;;
34711;SDS011;20941;42.408;25.634;2023-04-25T05:23:47;27.17;;;12.40;;
34711;SDS011;20941;42.408;25.634;2023-04-25T05:26:12;29.23;;;13.55;;
34711;SDS011;20941;42.408;25.634;2023-04-25T05:28:40;28.23;;;15.48;;
34711;SDS011;20941;42.408;25.634;2023-04-25T05:31:06;38.83;;;17.80;;
34711;SDS011;20941;42.408;25.634;2023-04-25T05:33:32;28.17;;;18.55;;
34711;SDS011;20941;42.408;25.634;2023-04-25T05:35:57;30.08;;;18.20;;
34711;SDS011;20941;42.408;25.634;2023-04-25T05:38:22;30.40;;;15.52;;
34711;SDS011;20941;42.408;25.634;2023-04-25T05:40:48;26.27;;;15.02;;
34711;SDS011;20941;42.408;25.634;2023-04-25T05:43:13;30.55;;;16.63;;
34711;SDS011;20941;42.408;25.634;2023-04-25T05:45:38;24.85;;;15.43;;
34711;SDS011;20941;42.408;25.634;2023-04-25T05:48:04;33.08;;;16.75;;
34711;SDS011;20941;42.408;25.634;2023-04-25T05:50:29;34.03;;;16.65;;
34711;SDS011;20941;42.408;25.634;2023-04-25T05:52:55;26.55;;;16.38;;
34711;SDS011;20941;42.408;25.634;2023-04-25T05:55:20;40.30;;;17.42;;
34711;SDS011;20941;42.408;25.634;2023-04-25T05:57:45;35.42;;;16.95;;
34711;SDS011;20941;42.408;25.634;2023-04-25T06:00:14;33.97;;;17.48;;
34711;SDS011;20941;42.408;25.634;2023-04-25T06:02:40;43.47;;;17.65;;
34711;SDS011;20941;42.408;25.634;2023-04-25T06:05:06;29.42;;;17.80;;
34711;SDS011;20941;42.408;25.634;2023-04-25T06:07:31;28.17;;;16.13;;
34711;SDS011;20941;42.408;25.634;2023-04-25T06:09:57;42.40;;;16.65;;
34711;SDS011;20941;42.408;25.634;2023-04-25T06:12:22;37.33;;;18.33;;
34711;SDS011;20941;42.408;25.634;2023-04-25T06:14:47;34.72;;;17.20;;
34711;SDS011;20941;42.408;25.634;2023-04-25T06:17:13;31.00;;;16.60;;
34711;SDS011;20941;42.408;25.634;2023-04-25T06:19:38;35.65;;;18.05;;
34711;SDS011;20941;42.408;25.634;2023-04-25T06:22:04;26.25;;;15.45;;
34711;SDS011;20941;42.408;25.634;2023-04-25T06:24:29;37.95;;;15.98;;
34711;SDS011;20941;42.408;25.634;2023-04-25T06:26:54;30.98;;;16.23;;
34711;SDS011;20941;42.408;25.634;2023-04-25T06:29:20;26.77;;;16.05;;
34711;SDS011;20941;42.408;25.634;2023-04-25T06:31:45;30.33;;;16.63;;
34711;SDS011;20941;42.408;25.634;2023-04-25T06:34:11;37.78;;;23.48;;
34711;SDS011;20941;42.408;25.634;2023-04-25T06:36:36;35.38;;;17.85;;
34711;SDS011;20941;42.408;25.634;2023-04-25T06:39:02;27.52;;;16.20;;
34711;SDS011;20941;42.408;25.634;2023-04-25T06:41:27;43.97;;;18.63;;
34711;SDS011;20941;42.408;25.634;2023-04-25T06:43:52;32.88;;;15.10;;
34711;SDS011;20941;42.408;25.634;2023-04-25T06:46:18;19.92;;;11.82;;
34711;SDS011;20941;42.408;25.634;2023-04-25T06:48:43;37.40;;;16.60;;
34711;SDS011;20941;42.408;25.634;2023-04-25T06:51:08;31.98;;;14.35;;
34711;SDS011;20941;42.408;25.634;2023-04-25T06:53:34;30.05;;;14.95;;
34711;SDS011;20941;42.408;25.634;2023-04-25T06:55:59;14.68;;;10.20;;
34711;SDS011;20941;42.408;25.634;2023-04-25T06:58:24;20.40;;;9.77;;
34711;SDS011;20941;42.408;25.634;2023-04-25T07:00:51;23.30;;;10.15;;
34711;SDS011;20941;42.408;25.634;2023-04-25T07:03:16;22.23;;;10.45;;
34711;SDS011;20941;42.408;25.634;2023-04-25T07:05:42;31.00;;;11.32;;
34711;SDS011;20941;42.408;25.634;2023-04-25T07:08:07;24.52;;;11.88;;
34711;SDS011;20941;42.408;25.634;2023-04-25T07:10:32;25.73;;;12.00;;
34711;SDS011;20941;42.408;25.634;2023-04-25T07:12:58;33.00;;;12.95;;
34711;SDS011;20941;42.408;25.634;2023-04-25T07:15:23;27.65;;;13.18;;
34711;SDS011;20941;42.408;25.634;2023-04-25T07:17:48;33.78;;;14.40;;
34711;SDS011;20941;42.408;25.634;2023-04-25T07:20:14;28.08;;;14.90;;
34711;SDS011;20941;42.408;25.634;2023-04-25T07:22:41;28.10;;;13.43;;
34711;SDS011;20941;42.408;25.634;2023-04-25T07:25:06;21.17;;;12.15;;
34711;SDS011;20941;42.408;25.634;2023-04-25T07:27:33;25.05;;;11.35;;
34711;SDS011;20941;42.408;25.634;2023-04-25T07:29:58;30.60;;;12.82;;
34711;SDS011;20941;42.408;25.634;2023-04-25T07:32:24;49.60;;;15.90;;
34711;SDS011;20941;42.408;25.634;2023-04-25T07:34:50;26.45;;;11.52;;
34711;SDS011;20941;42.408;25.634;2023-04-25T07:37:16;24.98;;;10.40;;
34711;SDS011;20941;42.408;25.634;2023-04-25T07:39:44;23.10;;;10.15;;
34711;SDS011;20941;42.408;25.634;2023-04-25T07:42:11;16.95;;;9.45;;
34711;SDS011;20941;42.408;25.634;2023-04-25T07:44:36;15.27;;;8.13;;
34711;SDS011;20941;42.408;25.634;2023-04-25T07:47:06;19.00;;;9.07;;
34711;SDS011;20941;42.408;25.634;2023-04-25T07:49:35;19.15;;;9.15;;
34711;SDS011;20941;42.408;25.634;2023-04-25T07:52:01;18.85;;;9.32;;
34711;SDS011;20941;42.408;25.634;2023-04-25T07:54:27;12.07;;;7.90;;
34711;SDS011;20941;42.408;25.634;2023-04-25T07:56:53;12.45;;;8.45;;
34711;SDS011;20941;42.408;25.634;2023-04-25T07:59:18;27.77;;;9.32;;
34711;SDS011;20941;42.408;25.634;2023-04-25T08:01:43;15.13;;;8.25;;
34711;SDS011;20941;42.408;25.634;2023-04-25T08:04:09;13.18;;;8.10;;
34711;SDS011;20941;42.408;25.634;2023-04-25T08:06:34;12.13;;;6.97;;
34711;SDS011;20941;42.408;25.634;2023-04-25T08:09:00;11.82;;;7.70;;
34711;SDS011;20941;42.408;25.634;2023-04-25T08:11:25;27.00;;;9.60;;
34711;SDS011;20941;42.408;25.634;2023-04-25T08:13:50;18.40;;;8.15;;
34711;SDS011;20941;42.408;25.634;2023-04-25T08:16:16;16.38;;;8.75;;
34711;SDS011;20941;42.408;25.634;2023-04-25T08:18:41;17.73;;;7.90;;
34711;SDS011;20941;42.408;25.634;2023-04-25T08:21:06;26.33;;;9.95;;
34711;SDS011;20941;42.408;25.634;2023-04-25T08:23:33;19.25;;;9.75;;
34711;SDS011;20941;42.408;25.634;2023-04-25T08:25:59;14.77;;;9.38;;
34711;SDS011;20941;42.408;25.634;2023-04-25T08:28:25;15.43;;;9.15;;
34711;SDS011;20941;42.408;25.634;2023-04-25T08:30:50;14.82;;;9.50;;
34711;SDS011;20941;42.408;25.634;2023-04-25T08:33:16;19.08;;;10.50;;
34711;SDS011;20941;42.408;25.634;2023-04-25T08:35:41;24.00;;;9.85;;
34711;SDS011;20941;42.408;25.634;2023-04-25T08:38:06;16.40;;;9.38;;
34711;SDS011;20941;42.408;25.634;2023-04-25T08:40:32;27.83;;;9.98;;
34711;SDS011;20941;42.408;25.634;2023-04-25T08:43:00;14.40;;;7.40;;
34711;SDS011;20941;42.408;25.634;2023-04-25T08:45:28;12.00;;;8.27;;
34711;SDS011;20941;42.408;25.634;2023-04-25T08:47:56;11.90;;;7.00;;
34711;SDS011;20941;42.408;25.634;2023-04-25T08:50:22;13.18;;;7.07;;
34711;SDS011;20941;42.408;25.634;2023-04-25T08:52:47;20.88;;;6.68;;
34711;SDS011;20941;42.408;25.634;2023-04-25T08:55:16;8.88;;;5.22;;
34711;SDS011;20941;42.408;25.634;2023-04-25T08:57:42;15.75;;;5.35;;
34711;SDS011;20941;42.408;25.634;2023-04-25T09:00:11;17.95;;;9.32;;
34711;SDS011;20941;42.408;25.634;2023-04-25T09:02:37;16.02;;;8.32;;
34711;SDS011;20941;42.408;25.634;2023-04-25T09:05:03;10.65;;;5.70;;
34711;SDS011;20941;42.408;25.634;2023-04-25T09:07:29;25.63;;;6.38;;
34711;SDS011;20941;42.408;25.634;2023-04-25T09:09:55;15.43;;;5.82;;
34711;SDS011;20941;42.408;25.634;2023-04-25T09:12:20;17.85;;;5.60;;
34711;SDS011;20941;42.408;25.634;2023-04-25T09:17:43;30.30;;;6.90;;
34711;SDS011;20941;42.408;25.634;2023-04-25T09:20:10;20.08;;;5.80;;
34711;SDS011;20941;42.408;25.634;2023-04-25T09:22:36;10.45;;;5.40;;
34711;SDS011;20941;42.408;25.634;2023-04-25T09:25:11;7.03;;;4.68;;
34711;SDS011;20941;42.408;25.634;2023-04-25T09:27:48;10.70;;;4.93;;
34711;SDS011;20941;42.408;25.634;2023-04-25T09:30:15;12.85;;;4.68;;
34711;SDS011;20941;42.408;25.634;2023-04-25T09:32:41;8.30;;;4.40;;
34711;SDS011;20941;42.408;25.634;2023-04-25T09:35:07;7.78;;;4.07;;
34711;SDS011;20941;42.408;25.634;2023-04-25T09:37:33;9.63;;;5.00;;
34711;SDS011;20941;42.408;25.634;2023-04-25T09:39:59;10.23;;;4.68;;
34711;SDS011;20941;42.408;25.634;2023-04-25T09:42:26;15.00;;;4.85;;
34711;SDS011;20941;42.408;25.634;2023-04-25T09:44:53;15.73;;;5.00;;
34711;SDS011;20941;42.408;25.634;2023-04-25T09:47:18;6.28;;;4.57;;
34711;SDS011;20941;42.408;25.634;2023-04-25T09:49:46;9.73;;;3.97;;
34711;SDS011;20941;42.408;25.634;2023-04-25T09:52:15;10.63;;;4.40;;
34711;SDS011;20941;42.408;25.634;2023-04-25T09:54:41;10.88;;;4.18;;
34711;SDS011;20941;42.408;25.634;2023-04-25T09:57:11;10.77;;;4.07;;
34711;SDS011;20941;42.408;25.634;2023-04-25T09:59:38;18.25;;;4.47;;
34711;SDS011;20941;42.408;25.634;2023-04-25T10:02:04;7.78;;;3.60;;
34711;SDS011;20941;42.408;25.634;2023-04-25T10:04:31;8.52;;;4.07;;
34711;SDS011;20941;42.408;25.634;2023-04-25T10:06:59;8.18;;;4.18;;
34711;SDS011;20941;42.408;25.634;2023-04-25T10:09:25;6.32;;;4.20;;
34711;SDS011;20941;42.408;25.634;2023-04-25T10:11:51;11.32;;;5.82;;
34711;SDS011;20941;42.408;25.634;2023-04-25T10:14:17;4.15;;;3.78;;
34711;SDS011;20941;42.408;25.634;2023-04-25T10:16:46;8.38;;;3.90;;
34711;SDS011;20941;42.408;25.634;2023-04-25T10:19:12;7.53;;;3.75;;
34711;SDS011;20941;42.408;25.634;2023-04-25T10:21:44;10.20;;;4.32;;
34711;SDS011;20941;42.408;25.634;2023-04-25T10:24:11;7.82;;;4.60;;
34711;SDS011;20941;42.408;25.634;2023-04-25T10:26:36;20.73;;;7.82;;
34711;SDS011;20941;42.408;25.634;2023-04-25T10:29:02;9.25;;;4.63;;
34711;SDS011;20941;42.408;25.634;2023-04-25T10:31:31;13.48;;;4.20;;
34711;SDS011;20941;42.408;25.634;2023-04-25T10:33:56;7.65;;;4.55;;
34711;SDS011;20941;42.408;25.634;2023-04-25T10:36:22;7.35;;;3.47;;
34711;SDS011;20941;42.408;25.634;2023-04-25T10:38:49;9.73;;;3.88;;
34711;SDS011;20941;42.408;25.634;2023-04-25T10:41:20;8.75;;;3.65;;
34711;SDS011;20941;42.408;25.634;2023-04-25T10:43:46;10.15;;;3.75;;
34711;SDS011;20941;42.408;25.634;2023-04-25T10:46:21;5.65;;;3.22;;
34711;SDS011;20941;42.408;25.634;2023-04-25T10:48:51;3.10;;;2.85;;
34711;SDS011;20941;42.408;25.634;2023-04-25T10:51:17;9.30;;;3.70;;
34711;SDS011;20941;42.408;25.634;2023-04-25T10:53:44;5.78;;;3.40;;
34711;SDS011;20941;42.408;25.634;2023-04-25T10:56:19;10.15;;;4.00;;
34711;SDS011;20941;42.408;25.634;2023-04-25T10:58:45;7.43;;;2.97;;
34711;SDS011;20941;42.408;25.634;2023-04-25T11:01:12;7.15;;;3.58;;
34711;SDS011;20941;42.408;25.634;2023-04-25T11:03:41;6.28;;;3.00;;
34711;SDS011;20941;42.408;25.634;2023-04-25T11:06:10;3.47;;;3.17;;
34711;SDS011;20941;42.408;25.634;2023-04-25T11:08:46;12.98;;;3.60;;
34711;SDS011;20941;42.408;25.634;2023-04-25T11:11:12;7.43;;;4.28;;
34711;SDS011;20941;42.408;25.634;2023-04-25T11:13:38;6.55;;;3.80;;
34711;SDS011;20941;42.408;25.634;2023-04-25T11:16:03;7.45;;;3.30;;
34711;SDS011;20941;42.408;25.634;2023-04-25T11:18:31;7.65;;;3.53;;
34711;SDS011;20941;42.408;25.634;2023-04-25T11:20:59;2.80;;;2.25;;
34711;SDS011;20941;42.408;25.634;2023-04-25T11:23:25;7.82;;;3.10;;
34711;SDS011;20941;42.408;25.634;2023-04-25T11:25:51;5.13;;;2.33;;
34711;SDS011;20941;42.408;25.634;2023-04-25T11:28:20;3.35;;;1.90;;
34711;SDS011;20941;42.408;25.634;2023-04-25T11:30:50;9.20;;;3.13;;
34711;SDS011;20941;42.408;25.634;2023-04-25T11:33:15;3.17;;;2.00;;
34711;SDS011;20941;42.408;25.634;2023-04-25T11:35:41;4.65;;;2.42;;
34711;SDS011;20941;42.408;25.634;2023-04-25T11:38:06;5.82;;;2.55;;
34711;SDS011;20941;42.408;25.634;2023-04-25T11:40:32;3.47;;;2.50;;
34711;SDS011;20941;42.408;25.634;2023-04-25T11:42:59;2.25;;;2.10;;
34711;SDS011;20941;42.408;25.634;2023-04-25T11:45:24;3.88;;;2.55;;
34711;SDS011;20941;42.408;25.634;2023-04-25T11:47:50;5.10;;;3.08;;
34711;SDS011;20941;42.408;25.634;2023-04-25T11:50:15;2.72;;;2.10;;
34711;SDS011;20941;42.408;25.634;2023-04-25T11:52:41;2.28;;;1.98;;
34711;SDS011;20941;42.408;25.634;2023-04-25T11:55:17;4.20;;;2.30;;
34711;SDS011;20941;42.408;25.634;2023-04-25T11:57:43;4.22;;;2.20;;
34711;SDS011;20941;42.408;25.634;2023-04-25T12:00:10;4.03;;;1.92;;
34711;SDS011;20941;42.408;25.634;2023-04-25T12:02:36;2.65;;;2.10;;
34711;SDS011;20941;42.408;25.634;2023-04-25T12:05:02;8.35;;;2.42;;
34711;SDS011;20941;42.408;25.634;2023-04-25T12:07:31;3.42;;;2.20;;
34711;SDS011;20941;42.408;25.634;2023-04-25T12:09:56;3.90;;;2.42;;
34711;SDS011;20941;42.408;25.634;2023-04-25T12:12:22;9.05;;;2.80;;
34711;SDS011;20941;42.408;25.634;2023-04-25T12:14:51;6.20;;;3.50;;
34711;SDS011;20941;42.408;25.634;2023-04-25T12:17:17;6.70;;;3.10;;
34711;SDS011;20941;42.408;25.634;2023-04-25T12:19:42;2.33;;;2.13;;
34711;SDS011;20941;42.408;25.634;2023-04-25T12:22:27;5.60;;;2.38;;
34711;SDS011;20941;42.408;25.634;2023-04-25T12:24:53;2.50;;;2.30;;
34711;SDS011;20941;42.408;25.634;2023-04-25T12:27:18;2.22;;;2.00;;
34711;SDS011;20941;42.408;25.634;2023-04-25T12:29:51;2.38;;;2.17;;
34711;SDS011;20941;42.408;25.634;2023-04-25T12:32:17;2.38;;;1.98;;
34711;SDS011;20941;42.408;25.634;2023-04-25T12:34:43;6.15;;;2.10;;
34711;SDS011;20941;42.408;25.634;2023-04-25T12:37:08;2.72;;;1.15;;
34711;SDS011;20941;42.408;25.634;2023-04-25T12:39:33;1.20;;;1.10;;
34711;SDS011;20941;42.408;25.634;2023-04-25T12:41:59;1.35;;;1.00;;
34711;SDS011;20941;42.408;25.634;2023-04-25T12:44:24;4.82;;;1.20;;
34711;SDS011;20941;42.408;25.634;2023-04-25T12:46:50;2.08;;;1.50;;
34711;SDS011;20941;42.408;25.634;2023-04-25T12:49:15;1.70;;;1.60;;
34711;SDS011;20941;42.408;25.634;2023-04-25T12:51:40;2.95;;;2.00;;
34711;SDS011;20941;42.408;25.634;2023-04-25T12:54:06;3.90;;;2.35;;
34711;SDS011;20941;42.408;25.634;2023-04-25T12:56:33;2.58;;;2.10;;
34711;SDS011;20941;42.408;25.634;2023-04-25T12:58:58;5.53;;;2.15;;
34711;SDS011;20941;42.408;25.634;2023-04-25T13:01:24;2.00;;;1.70;;
34711;SDS011;20941;42.408;25.634;2023-04-25T13:03:50;3.13;;;1.38;;
34711;SDS011;20941;42.408;25.634;2023-04-25T13:06:16;4.78;;;2.25;;
34711;SDS011;20941;42.408;25.634;2023-04-25T13:08:41;2.35;;;1.80;;
34711;SDS011;20941;42.408;25.634;2023-04-25T13:11:07;3.95;;;1.80;;
34711;SDS011;20941;42.408;25.634;2023-04-25T13:13:34;2.28;;;2.17;;
34711;SDS011;20941;42.408;25.634;2023-04-25T13:16:03;3.33;;;1.50;;
34711;SDS011;20941;42.408;25.634;2023-04-25T13:18:30;2.28;;;1.42;;
34711;SDS011;20941;42.408;25.634;2023-04-25T13:20:55;2.13;;;1.92;;
34711;SDS011;20941;42.408;25.634;2023-04-25T13:23:21;3.53;;;1.92;;
34711;SDS011;20941;42.408;25.634;2023-04-25T13:25:47;3.72;;;2.70;;
34711;SDS011;20941;42.408;25.634;2023-04-25T13:28:12;5.05;;;2.28;;
34711;SDS011;20941;42.408;25.634;2023-04-25T13:30:37;2.28;;;1.92;;
34711;SDS011;20941;42.408;25.634;2023-04-25T13:33:03;3.03;;;2.22;;
34711;SDS011;20941;42.408;25.634;2023-04-25T13:35:29;3.20;;;2.22;;
34711;SDS011;20941;42.408;25.634;2023-04-25T13:37:55;17.35;;;7.65;;
34711;SDS011;20941;42.408;25.634;2023-04-25T13:40:20;8.43;;;3.25;;
34711;SDS011;20941;42.408;25.634;2023-04-25T13:42:45;8.40;;;2.40;;
34711;SDS011;20941;42.408;25.634;2023-04-25T13:45:11;2.00;;;1.85;;
34711;SDS011;20941;42.408;25.634;2023-04-25T13:47:37;5.93;;;2.40;;
34711;SDS011;20941;42.408;25.634;2023-04-25T13:50:03;2.75;;;2.35;;
34711;SDS011;20941;42.408;25.634;2023-04-25T13:52:28;3.42;;;2.45;;
34711;SDS011;20941;42.408;25.634;2023-04-25T13:54:54;3.08;;;2.03;;
34711;SDS011;20941;42.408;25.634;2023-04-25T13:57:19;7.43;;;3.15;;
34711;SDS011;20941;42.408;25.634;2023-04-25T13:59:45;10.45;;;3.22;;
34711;SDS011;20941;42.408;25.634;2023-04-25T14:02:11;6.10;;;2.97;;
34711;SDS011;20941;42.408;25.634;2023-04-25T14:04:37;10.65;;;4.63;;
34711;SDS011;20941;42.408;25.634;2023-04-25T14:07:02;6.53;;;2.97;;
34711;SDS011;20941;42.408;25.634;2023-04-25T14:09:28;1.70;;;1.60;;
34711;SDS011;20941;42.408;25.634;2023-04-25T14:11:53;2.50;;;2.00;;
34711;SDS011;20941;42.408;25.634;2023-04-25T14:14:19;3.83;;;2.75;;